createdAt,value
2023-03-05T00:00:30.477Z,2.73
2023-03-05T00:03:33.609Z,2.72
2023-03-05T00:06:36.416Z,2.70
2023-03-05T00:09:40.671Z,2.64
2023-03-05T00:12:43.335Z,2.68
2023-03-05T00:15:46.248Z,2.61
2023-03-05T00:18:49.784Z,2.63
2023-03-05T00:21:52.725Z,2.61
2023-03-05T00:24:55.386Z,2.69
2023-03-05T00:27:58.414Z,2.54
2023-03-05T00:31:01.610Z,2.58
2023-03-05T00:34:08.329Z,2.67
2023-03-05T00:37:11.180Z,2.54
2023-03-05T00:40:14.405Z,2.57
2023-03-05T00:43:17.098Z,2.29
2023-03-05T00:46:20.065Z,2.52
2023-03-05T00:49:22.674Z,2.34
2023-03-05T00:52:26.758Z,2.19
2023-03-05T00:55:29.394Z,2.34
2023-03-05T00:58:32.400Z,2.36
2023-03-05T01:01:35.215Z,2.37
2023-03-05T01:04:38.970Z,2.23
2023-03-05T01:07:41.657Z,2.37
2023-03-05T01:10:44.575Z,2.19
2023-03-05T01:13:47.651Z,2.19
2023-03-05T01:16:50.573Z,2.26
2023-03-05T01:19:53.226Z,2.17
2023-03-05T01:22:56.411Z,2.00
2023-03-05T01:25:59.830Z,2.01
2023-03-05T01:29:02.823Z,2.24
2023-03-05T01:32:05.973Z,1.96
2023-03-05T01:35:10.970Z,1.83
2023-03-05T01:38:13.908Z,2.01
2023-03-05T01:41:18.933Z,1.97
2023-03-05T01:44:23.561Z,1.88
2023-03-05T01:47:26.514Z,1.92
2023-03-05T01:50:29.467Z,1.93
2023-03-05T01:53:32.420Z,1.76
2023-03-05T01:56:36.017Z,1.91
2023-03-05T01:59:42.018Z,1.65
2023-03-05T02:02:47.722Z,1.68
2023-03-05T02:05:50.666Z,1.62
2023-03-05T02:08:53.846Z,1.58
2023-03-05T02:11:57.399Z,1.58
2023-03-05T02:15:00.403Z,1.51
2023-03-05T02:18:03.199Z,1.51
2023-03-05T02:21:10.832Z,1.59
2023-03-05T02:24:16.069Z,1.54
2023-03-05T02:27:23.509Z,1.64
2023-03-05T02:30:26.622Z,1.47
2023-03-05T02:33:29.845Z,1.30
2023-03-05T02:36:32.745Z,1.24
2023-03-05T02:39:36.719Z,1.34
2023-03-05T02:42:39.882Z,1.32
2023-03-05T02:45:43.513Z,1.04
2023-03-05T02:48:46.193Z,1.25
2023-03-05T02:51:49.669Z,0.98
2023-03-05T02:54:53.183Z,1.08
2023-03-05T02:57:56.161Z,1.17
2023-03-05T03:00:58.903Z,1.08
2023-03-05T03:04:01.996Z,1.00
2023-03-05T03:07:04.827Z,1.02
2023-03-05T03:10:08.363Z,0.85
2023-03-05T03:13:11.258Z,0.91
2023-03-05T03:16:17.009Z,0.96
2023-03-05T03:19:19.766Z,0.94
2023-03-05T03:22:22.692Z,0.82
2023-03-05T03:25:25.302Z,0.86
2023-03-05T03:28:28.356Z,0.70
2023-03-05T03:31:30.949Z,0.66
2023-03-05T03:34:33.973Z,0.82
2023-03-05T03:37:36.645Z,0.68
2023-03-05T03:40:41.787Z,0.68
2023-03-05T03:43:44.406Z,0.63
2023-03-05T03:46:49.102Z,0.55
2023-03-05T03:49:55.164Z,0.49
2023-03-05T03:52:58.053Z,0.25
2023-03-05T03:56:00.654Z,0.58
2023-03-05T03:59:04.156Z,0.48
2023-03-05T04:02:06.922Z,0.52
2023-03-05T04:05:10.132Z,0.80
2023-03-05T04:08:12.850Z,1.10
2023-03-05T04:11:16.130Z,0.95
2023-03-05T04:14:19.142Z,0.84
2023-03-05T04:17:22.061Z,0.56
2023-03-05T04:20:25.003Z,0.43
2023-03-05T04:23:27.984Z,0.33
2023-03-05T04:26:30.577Z,0.57
2023-03-05T04:29:34.639Z,0.71
2023-03-05T04:32:37.521Z,0.70
2023-03-05T04:35:40.535Z,0.71
2023-03-05T04:38:43.373Z,0.72
2023-03-05T04:41:47.091Z,0.57
2023-03-05T04:44:50.403Z,0.62
2023-03-05T04:47:53.349Z,0.55
2023-03-05T04:50:57.997Z,0.44
2023-03-05T04:54:01.055Z,0.56
2023-03-05T04:57:03.935Z,0.49
2023-03-05T05:00:16.777Z,0.56
2023-03-05T05:03:19.497Z,0.55
2023-03-05T05:06:22.510Z,0.51
2023-03-05T05:09:26.344Z,0.38
2023-03-05T05:12:30.825Z,0.47
2023-03-05T05:15:33.486Z,0.58
2023-03-05T05:18:36.530Z,0.44
2023-03-05T05:21:39.341Z,0.68
2023-03-05T05:24:42.334Z,0.73
2023-03-05T05:27:45.042Z,0.51
2023-03-05T05:30:47.963Z,0.48
2023-03-05T05:33:50.685Z,0.47
2023-03-05T05:36:53.775Z,0.16
2023-03-05T05:39:56.445Z,0.26
2023-03-05T05:42:59.375Z,0.35
2023-03-05T05:46:04.189Z,0.59
2023-03-05T05:49:07.185Z,0.55
2023-03-05T05:52:10.010Z,0.78
2023-03-05T05:55:13.626Z,0.99
2023-03-05T05:58:16.332Z,0.99
2023-03-05T06:01:19.531Z,0.99
2023-03-05T06:04:22.658Z,1.10
2023-03-05T06:07:25.216Z,1.35
2023-03-05T06:10:28.370Z,1.47
2023-03-05T06:13:31.008Z,1.28
2023-03-05T06:16:35.444Z,1.38
2023-03-05T06:19:38.041Z,1.39
2023-03-05T06:22:41.366Z,1.96
2023-03-05T06:25:43.914Z,1.99
2023-03-05T06:28:46.861Z,1.99
2023-03-05T06:31:49.511Z,2.32
2023-03-05T06:34:52.515Z,2.54
2023-03-05T06:37:55.136Z,2.40
2023-03-05T06:41:02.210Z,2.47
2023-03-05T06:44:05.462Z,2.56
2023-03-05T06:47:10.636Z,2.92
2023-03-05T06:50:13.545Z,3.00
2023-03-05T06:53:16.497Z,2.95
2023-03-05T06:56:20.161Z,2.86
2023-03-05T06:59:23.534Z,2.89
2023-03-05T07:02:26.279Z,3.29
2023-03-05T07:05:29.304Z,3.37
2023-03-05T07:08:32.651Z,3.52
2023-03-05T07:11:35.802Z,4.02
2023-03-05T07:14:39.130Z,3.98
2023-03-05T07:17:42.069Z,3.98
2023-03-05T07:20:44.780Z,3.95
2023-03-05T07:23:48.185Z,4.45
2023-03-05T07:26:50.851Z,4.39
2023-03-05T07:29:53.868Z,4.42
2023-03-05T07:32:56.506Z,4.48
2023-03-05T07:35:59.576Z,4.84
2023-03-05T07:39:05.013Z,4.90
2023-03-05T07:42:08.014Z,4.88
2023-03-05T07:45:19.450Z,4.95
2023-03-05T07:48:22.468Z,5.11
2023-03-05T07:51:26.892Z,5.18
2023-03-05T07:54:29.879Z,5.62
2023-03-05T07:57:32.589Z,5.64
2023-03-05T08:00:35.561Z,5.54
2023-03-05T08:03:39.416Z,5.43
2023-03-05T08:06:42.391Z,5.52
2023-03-05T08:09:45.313Z,5.57
2023-03-05T08:12:47.937Z,5.63
2023-03-05T08:15:50.794Z,5.85
2023-03-05T08:18:57.941Z,5.83
2023-03-05T08:22:00.942Z,6.32
2023-03-05T08:25:04.532Z,5.82
2023-03-05T08:28:07.442Z,5.81
2023-03-05T08:31:11.402Z,6.46
2023-03-05T08:34:14.293Z,6.05
2023-03-05T08:37:16.862Z,6.54
2023-03-05T08:40:20.478Z,6.84
2023-03-05T08:43:23.200Z,6.64
2023-03-05T08:46:26.151Z,6.69
2023-03-05T08:49:29.096Z,6.25
2023-03-05T08:52:31.989Z,6.25
2023-03-05T08:55:35.084Z,6.71
2023-03-05T08:58:38.076Z,6.73
2023-03-05T09:01:40.829Z,7.01
2023-03-05T09:04:44.003Z,7.35
2023-03-05T09:07:46.702Z,7.68
2023-03-05T09:10:49.819Z,7.27
2023-03-05T09:13:52.385Z,7.35
2023-03-05T09:16:56.585Z,7.47
2023-03-05T09:19:59.286Z,7.07
2023-03-05T09:23:02.584Z,7.23
2023-03-05T09:26:06.677Z,7.29
2023-03-05T09:29:09.948Z,7.23
2023-03-05T09:32:12.631Z,7.56
2023-03-05T09:35:15.587Z,7.12
2023-03-05T09:38:19.380Z,7.25
2023-03-05T09:41:53.286Z,7.42
2023-03-05T09:45:17.584Z,7.62
2023-03-05T09:48:44.372Z,7.68
2023-03-05T09:51:52.130Z,7.61
2023-03-05T09:54:57.787Z,7.11
2023-03-05T09:58:11.395Z,6.96
2023-03-05T10:01:39.000Z,7.09
2023-03-05T10:05:00.364Z,6.85
2023-03-05T10:08:05.321Z,7.28
2023-03-05T10:11:22.344Z,6.89
2023-03-05T10:14:35.006Z,6.85
2023-03-05T10:17:55.696Z,6.56
2023-03-05T10:21:22.192Z,6.83
2023-03-05T10:24:57.215Z,6.80
2023-03-05T10:28:18.017Z,6.69
2023-03-05T10:31:39.542Z,6.91
2023-03-05T10:34:54.271Z,6.85
2023-03-05T10:38:09.266Z,6.94
2023-03-05T10:41:38.792Z,7.11
2023-03-05T10:45:01.721Z,7.12
2023-03-05T10:48:55.649Z,6.82
2023-03-05T10:52:09.836Z,6.87
2023-03-05T10:55:21.488Z,7.12
2023-03-05T10:58:25.513Z,7.15
2023-03-05T11:01:31.026Z,7.48
2023-03-05T11:04:39.880Z,7.31
2023-03-05T11:07:42.550Z,7.35
2023-03-05T11:10:45.810Z,7.78
2023-03-05T11:13:48.276Z,7.33
2023-03-05T11:16:51.262Z,7.48
2023-03-05T11:19:54.238Z,7.54
2023-03-05T11:23:17.202Z,7.93
2023-03-05T11:26:23.281Z,7.82
2023-03-05T11:29:31.561Z,7.24
2023-03-05T11:32:34.393Z,7.24
2023-03-05T11:35:39.935Z,7.65
2023-03-05T11:38:58.837Z,7.47
2023-03-05T11:42:06.947Z,7.77
2023-03-05T11:45:19.430Z,7.85
2023-03-05T11:48:28.673Z,7.63
2023-03-05T11:51:57.888Z,7.92
2023-03-05T11:55:16.093Z,7.90
2023-03-05T11:58:50.057Z,8.07
2023-03-05T12:01:55.608Z,8.75
2023-03-05T12:05:00.135Z,8.51
2023-03-05T12:08:03.405Z,9.09
2023-03-05T12:11:16.132Z,8.48
2023-03-05T12:14:44.781Z,8.98
2023-03-05T12:17:54.615Z,8.51
2023-03-05T12:21:08.288Z,8.79
2023-03-05T12:24:26.018Z,8.55
2023-03-05T12:27:37.010Z,8.79
2023-03-05T12:30:43.481Z,9.00
2023-03-05T12:33:46.783Z,8.81
2023-03-05T12:36:49.701Z,8.67
2023-03-05T12:40:00.910Z,8.61
2023-03-05T12:43:23.338Z,8.59
2023-03-05T12:46:29.152Z,8.24
2023-03-05T12:49:39.776Z,8.31
2023-03-05T12:52:46.046Z,8.73
2023-03-05T12:56:01.105Z,8.65
2023-03-05T12:59:04.449Z,8.73
2023-03-05T13:02:21.594Z,8.72
2023-03-05T13:05:37.494Z,9.08
2023-03-05T13:08:40.511Z,8.59
2023-03-05T13:11:48.139Z,8.65
2023-03-05T13:15:04.596Z,9.04
2023-03-05T13:18:20.523Z,9.03
2023-03-05T13:21:30.838Z,8.83
2023-03-05T13:24:33.536Z,8.58
2023-03-05T13:27:36.525Z,8.47
2023-03-05T13:30:44.407Z,9.02
2023-03-05T13:33:57.014Z,8.83
2023-03-05T13:37:07.561Z,8.48
2023-03-05T13:40:23.962Z,7.94
2023-03-05T13:43:26.896Z,7.92
2023-03-05T13:46:42.179Z,7.59
2023-03-05T13:49:47.267Z,7.62
2023-03-05T13:52:50.661Z,7.82
2023-03-05T13:55:59.767Z,8.15
2023-03-05T13:59:02.766Z,7.97
2023-03-05T14:02:17.315Z,8.02
2023-03-05T14:05:21.339Z,7.88
2023-03-05T14:08:26.640Z,8.14
2023-03-05T14:11:30.141Z,8.39
2023-03-05T14:14:37.664Z,8.39
2023-03-05T14:17:42.842Z,8.18
2023-03-05T14:21:05.703Z,8.01
2023-03-05T14:24:15.118Z,8.10
2023-03-05T14:27:21.500Z,7.63
2023-03-05T14:30:25.630Z,7.53
2023-03-05T14:33:31.254Z,7.42
2023-03-05T14:36:34.936Z,7.50
2023-03-05T14:39:46.243Z,7.33
2023-03-05T14:43:01.281Z,7.47
2023-03-05T14:46:04.808Z,7.35
2023-03-05T14:49:08.516Z,7.51
2023-03-05T14:52:17.188Z,7.48
2023-03-05T14:55:24.084Z,7.55
2023-03-05T14:58:35.725Z,7.64
2023-03-05T15:01:39.306Z,7.53
2023-03-05T15:04:41.951Z,7.56
2023-03-05T15:07:46.119Z,7.61
2023-03-05T15:10:50.390Z,7.72
2023-03-05T15:13:53.634Z,7.59
2023-03-05T15:16:56.461Z,7.73
2023-03-05T15:19:59.684Z,7.58
2023-03-05T15:23:02.616Z,7.45
2023-03-05T15:26:07.665Z,7.44
2023-03-05T15:29:10.626Z,7.54
2023-03-05T15:32:14.194Z,7.56
2023-03-05T15:35:17.731Z,7.53
2023-03-05T15:38:21.274Z,7.48
2023-03-05T15:41:24.082Z,7.52
2023-03-05T15:44:27.913Z,7.62
2023-03-05T15:47:33.380Z,7.52
2023-03-05T15:50:36.803Z,7.44
2023-03-05T15:53:39.735Z,7.43
2023-03-05T15:56:42.891Z,7.41
2023-03-05T15:59:46.166Z,7.34
2023-03-05T16:02:49.121Z,7.21
2023-03-05T16:05:53.851Z,7.28
2023-03-05T16:09:02.365Z,7.21
2023-03-05T16:12:10.183Z,7.23
2023-03-05T16:15:16.706Z,7.46
2023-03-05T16:18:21.477Z,7.54
2023-03-05T16:21:24.710Z,7.68
2023-03-05T16:24:27.970Z,7.62
2023-03-05T16:27:31.031Z,7.64
2023-03-05T16:30:34.325Z,7.46
2023-03-05T16:33:38.240Z,7.26
2023-03-05T16:36:48.509Z,7.16
2023-03-05T16:39:51.579Z,6.99
2023-03-05T16:42:54.724Z,7.03
2023-03-05T16:45:57.777Z,6.83
2023-03-05T16:49:00.973Z,6.90
2023-03-05T16:52:17.785Z,6.81
2023-03-05T16:55:21.807Z,6.80
2023-03-05T16:58:24.682Z,6.74
2023-03-05T17:01:30.323Z,6.64
2023-03-05T17:04:33.642Z,6.57
2023-03-05T17:07:36.834Z,6.54
2023-03-05T17:10:39.887Z,6.50
2023-03-05T17:13:43.629Z,6.53
2023-03-05T17:16:46.746Z,6.32
2023-03-05T17:19:50.086Z,6.44
2023-03-05T17:22:53.139Z,6.35
2023-03-05T17:25:56.582Z,6.20
2023-03-05T17:29:00.171Z,6.38
2023-03-05T17:32:03.936Z,6.30
2023-03-05T17:35:08.192Z,6.28
2023-03-05T17:38:11.451Z,6.14
2023-03-05T17:41:15.885Z,6.14
2023-03-05T17:44:19.167Z,6.05
2023-03-05T17:47:23.556Z,6.05
2023-03-05T17:50:26.939Z,5.82
2023-03-05T17:53:30.339Z,5.74
2023-03-05T17:56:33.690Z,5.67
2023-03-05T17:59:36.788Z,5.61
2023-03-05T18:02:40.694Z,5.56
2023-03-05T18:05:44.392Z,5.55
2023-03-05T18:08:48.324Z,5.47
2023-03-05T18:11:52.012Z,5.39
2023-03-05T18:14:54.930Z,5.42
2023-03-05T18:17:58.762Z,5.44
2023-03-05T18:21:02.492Z,5.41
2023-03-05T18:24:06.449Z,5.37
2023-03-05T18:27:09.543Z,5.41
2023-03-05T18:30:12.959Z,5.50
2023-03-05T18:33:20.292Z,5.35
2023-03-05T18:36:23.558Z,5.50
2023-03-05T18:39:29.280Z,5.44
2023-03-05T18:42:32.486Z,5.40
2023-03-05T18:45:36.090Z,5.38
2023-03-05T18:48:39.444Z,5.26
2023-03-05T18:51:42.984Z,5.34
2023-03-05T18:54:46.215Z,5.29
2023-03-05T18:57:49.366Z,5.16
2023-03-05T19:00:52.550Z,5.09
2023-03-05T19:03:56.103Z,5.09
2023-03-05T19:06:59.426Z,5.04
2023-03-05T19:10:07.317Z,5.01
2023-03-05T19:13:35.836Z,5.15
2023-03-05T19:16:43.935Z,5.05
2023-03-05T19:19:54.629Z,5.19
2023-03-05T19:22:59.553Z,5.22
2023-03-05T19:26:03.901Z,5.21
2023-03-05T19:29:08.372Z,5.11
2023-03-05T19:32:14.731Z,5.06
2023-03-05T19:35:18.275Z,5.15
2023-03-05T19:38:22.826Z,5.33
2023-03-05T19:41:27.729Z,5.32
2023-03-05T19:44:32.850Z,5.37
2023-03-05T19:47:35.844Z,5.34
2023-03-05T19:50:40.969Z,5.21
2023-03-05T19:53:44.205Z,5.16
2023-03-05T19:56:48.318Z,5.16
2023-03-05T19:59:54.943Z,5.04
2023-03-05T20:02:58.351Z,5.06
2023-03-05T20:06:02.140Z,5.01
2023-03-05T20:09:07.914Z,4.96
2023-03-05T20:12:11.740Z,4.81
2023-03-05T20:15:14.995Z,4.75
2023-03-05T20:18:19.198Z,4.72
2023-03-05T20:21:25.315Z,4.65
2023-03-05T20:24:28.929Z,4.68
2023-03-05T20:27:33.768Z,4.63
2023-03-05T20:30:37.107Z,4.77
2023-03-05T20:33:40.223Z,4.66
2023-03-05T20:36:43.816Z,4.67
2023-03-05T20:39:46.695Z,4.63
2023-03-05T20:42:52.642Z,4.61
2023-03-05T20:45:57.512Z,4.61
2023-03-05T20:49:02.823Z,4.62
2023-03-05T20:52:05.452Z,4.61
2023-03-05T20:55:10.018Z,4.74
2023-03-05T20:58:13.354Z,4.62
2023-03-05T21:01:17.330Z,4.62
2023-03-05T21:04:20.524Z,4.53
2023-03-05T21:07:25.927Z,4.73
2023-03-05T21:10:30.629Z,4.73
2023-03-05T21:13:33.859Z,4.64
2023-03-05T21:16:36.781Z,4.65
2023-03-05T21:19:39.990Z,4.64
2023-03-05T21:22:43.017Z,4.57
2023-03-05T21:25:46.400Z,4.49
2023-03-05T21:28:49.419Z,4.56
2023-03-05T21:31:52.389Z,4.52
2023-03-05T21:34:55.234Z,4.54
2023-03-05T21:38:00.678Z,4.54
2023-03-05T21:41:04.488Z,4.30
2023-03-05T21:44:07.517Z,4.22
2023-03-05T21:47:10.444Z,4.46
2023-03-05T21:50:15.539Z,4.34
2023-03-05T21:53:19.911Z,4.32
2023-03-05T21:56:25.195Z,4.32
2023-03-05T21:59:28.145Z,4.24
2023-03-05T22:02:31.396Z,4.24
2023-03-05T22:05:34.329Z,4.51
2023-03-05T22:08:37.033Z,4.60
2023-03-05T22:11:43.907Z,4.55
2023-03-05T22:14:46.549Z,4.49
2023-03-05T22:17:50.277Z,4.47
2023-03-05T22:20:53.922Z,4.49
2023-03-05T22:23:58.378Z,4.56
2023-03-05T22:27:02.051Z,4.65
2023-03-05T22:30:14.196Z,4.42
2023-03-05T22:33:16.872Z,4.29
2023-03-05T22:36:20.461Z,4.24
2023-03-05T22:39:23.023Z,4.17
2023-03-05T22:42:26.059Z,4.13
2023-03-05T22:45:29.122Z,4.23
2023-03-05T22:48:32.027Z,4.32
2023-03-05T22:51:34.629Z,4.18
2023-03-05T22:54:37.534Z,4.26
2023-03-05T22:57:40.990Z,4.38
2023-03-05T23:00:44.156Z,4.40
2023-03-05T23:04:10.375Z,4.35
2023-03-05T23:07:32.855Z,4.46
2023-03-05T23:10:35.520Z,4.40
2023-03-05T23:13:40.541Z,4.33
2023-03-05T23:16:43.101Z,4.31
2023-03-05T23:19:46.249Z,4.26
2023-03-05T23:22:49.798Z,4.26
2023-03-05T23:25:52.937Z,4.28
2023-03-05T23:28:55.561Z,4.20
2023-03-05T23:31:58.528Z,4.25
2023-03-05T23:35:01.209Z,4.05
2023-03-05T23:38:08.399Z,3.83
2023-03-05T23:41:11.048Z,3.92
2023-03-05T23:44:13.948Z,4.00
2023-03-05T23:47:16.487Z,4.00
2023-03-05T23:50:25.296Z,3.81
2023-03-05T23:53:31.281Z,3.87
2023-03-05T23:56:34.223Z,4.06
2023-03-05T23:59:37.017Z,3.97
